createdAt,value
2022-10-18T00:00:48.425Z,89.34
2022-10-18T00:03:17.524Z,89.28
2022-10-18T00:05:44.534Z,89.20
2022-10-18T00:08:11.749Z,89.20
2022-10-18T00:10:38.419Z,89.05
2022-10-18T00:13:05.587Z,89.16
2022-10-18T00:15:32.638Z,89.10
2022-10-18T00:17:59.684Z,89.14
2022-10-18T00:20:26.785Z,89.10
2022-10-18T00:22:54.323Z,89.26
2022-10-18T00:25:20.968Z,89.40
2022-10-18T00:27:47.796Z,89.43
2022-10-18T00:30:14.581Z,89.53
2022-10-18T00:32:41.994Z,89.75
2022-10-18T00:35:08.998Z,89.85
2022-10-18T00:37:35.997Z,89.91
2022-10-18T00:40:04.147Z,89.91
2022-10-18T00:42:34.543Z,90.09
2022-10-18T00:45:01.198Z,90.03
2022-10-18T00:47:28.112Z,90.25
2022-10-18T00:49:58.478Z,90.42
2022-10-18T00:52:35.154Z,90.35
2022-10-18T00:55:03.350Z,90.37
2022-10-18T00:57:31.113Z,90.41
2022-10-18T00:59:58.365Z,90.42
2022-10-18T01:02:26.525Z,90.37
2022-10-18T01:04:52.989Z,90.39
2022-10-18T01:07:42.867Z,90.44
2022-10-18T01:10:28.153Z,90.32
2022-10-18T01:13:05.229Z,90.42
2022-10-18T01:15:43.429Z,90.46
2022-10-18T01:18:25.420Z,90.53
2022-10-18T01:21:00.544Z,90.38
2022-10-18T01:23:39.219Z,90.45
2022-10-18T01:26:33.445Z,90.44
2022-10-18T01:29:18.379Z,90.31
2022-10-18T01:31:57.644Z,90.24
2022-10-18T01:34:31.637Z,90.24
2022-10-18T01:37:01.097Z,90.28
2022-10-18T01:39:32.118Z,90.28
2022-10-18T01:42:05.778Z,90.27
2022-10-18T01:44:34.468Z,90.32
2022-10-18T01:47:01.128Z,90.27
2022-10-18T01:49:27.754Z,90.14
2022-10-18T01:51:54.434Z,90.02
2022-10-18T01:54:42.915Z,89.90
2022-10-18T01:57:31.694Z,89.80
2022-10-18T02:00:23.533Z,89.65
2022-10-18T02:03:01.735Z,89.65
2022-10-18T02:05:52.600Z,89.67
2022-10-18T02:08:33.225Z,89.75
2022-10-18T02:11:12.953Z,89.71
2022-10-18T02:13:45.633Z,89.60
2022-10-18T02:16:25.614Z,89.66
2022-10-18T02:19:15.316Z,89.58
2022-10-18T02:21:45.915Z,89.58
2022-10-18T02:24:25.436Z,89.62
2022-10-18T02:26:52.025Z,89.64
2022-10-18T02:29:18.682Z,89.70
2022-10-18T02:31:49.095Z,89.81
2022-10-18T02:34:34.494Z,89.84
2022-10-18T02:37:02.749Z,89.92
2022-10-18T02:39:41.417Z,90.05
2022-10-18T02:42:10.347Z,90.06
2022-10-18T02:44:38.069Z,90.10
2022-10-18T02:47:06.513Z,90.07
2022-10-18T02:49:33.392Z,90.12
2022-10-18T02:52:00.016Z,90.20
2022-10-18T02:54:26.764Z,89.99
2022-10-18T02:56:53.233Z,89.85
2022-10-18T02:59:21.584Z,89.75
2022-10-18T03:01:48.391Z,89.67
2022-10-18T03:04:15.185Z,89.62
2022-10-18T03:06:42.123Z,89.53
2022-10-18T03:09:09.610Z,89.55
2022-10-18T03:11:36.468Z,89.69
2022-10-18T03:14:02.916Z,89.79
2022-10-18T03:16:29.578Z,89.81
2022-10-18T03:18:56.175Z,89.86
2022-10-18T03:21:23.045Z,89.98
2022-10-18T03:23:49.653Z,90.01
2022-10-18T03:26:16.474Z,89.96
2022-10-18T03:28:43.338Z,90.01
2022-10-18T03:31:09.899Z,90.09
2022-10-18T03:33:36.774Z,90.20
2022-10-18T03:36:03.796Z,90.17
2022-10-18T03:38:30.729Z,90.11
2022-10-18T03:40:57.257Z,90.10
2022-10-18T03:43:24.050Z,90.08
2022-10-18T03:45:51.094Z,90.01
2022-10-18T03:48:17.740Z,89.94
2022-10-18T03:50:44.460Z,89.96
2022-10-18T03:53:12.204Z,89.87
2022-10-18T03:55:39.430Z,89.94
2022-10-18T03:58:06.338Z,89.96
2022-10-18T04:00:33.335Z,89.96
2022-10-18T04:03:00.098Z,89.85
2022-10-18T04:05:30.198Z,89.68
2022-10-18T04:07:57.447Z,89.70
2022-10-18T04:10:24.505Z,89.64
2022-10-18T04:12:51.222Z,89.55
2022-10-18T04:15:18.034Z,89.54
2022-10-18T04:17:44.871Z,89.51
2022-10-18T04:20:12.115Z,89.59
2022-10-18T04:22:38.813Z,89.54
2022-10-18T04:25:05.568Z,89.48
2022-10-18T04:27:32.560Z,89.35
2022-10-18T04:30:00.184Z,89.30
2022-10-18T04:32:28.948Z,89.24
2022-10-18T04:34:55.625Z,89.12
2022-10-18T04:37:22.457Z,89.05
2022-10-18T04:39:52.725Z,89.03
2022-10-18T04:42:22.014Z,88.94
2022-10-18T04:44:49.079Z,89.00
2022-10-18T04:47:16.749Z,89.06
2022-10-18T04:49:43.375Z,88.95
2022-10-18T04:52:11.370Z,88.91
2022-10-18T04:54:38.348Z,88.98
2022-10-18T04:57:04.908Z,88.96
2022-10-18T04:59:31.658Z,89.00
2022-10-18T05:01:58.756Z,89.10
2022-10-18T05:04:25.486Z,89.02
2022-10-18T05:06:52.310Z,88.95
2022-10-18T05:09:18.977Z,89.02
2022-10-18T05:11:46.057Z,89.03
2022-10-18T05:14:12.900Z,89.05
2022-10-18T05:16:39.388Z,89.00
2022-10-18T05:19:06.018Z,88.91
2022-10-18T05:21:33.376Z,89.03
2022-10-18T05:24:00.284Z,89.13
2022-10-18T05:26:27.170Z,89.11
2022-10-18T05:28:54.070Z,89.24
2022-10-18T05:31:21.024Z,89.40
2022-10-18T05:33:48.039Z,89.49
2022-10-18T05:36:14.778Z,89.46
2022-10-18T05:38:42.476Z,89.58
2022-10-18T05:41:09.598Z,89.68
2022-10-18T05:43:36.438Z,89.72
2022-10-18T05:46:04.398Z,89.75
2022-10-18T05:48:31.446Z,89.74
2022-10-18T05:50:59.406Z,89.72
2022-10-18T05:53:41.915Z,89.64
2022-10-18T05:56:11.378Z,89.67
2022-10-18T05:58:39.085Z,89.53
2022-10-18T06:01:06.869Z,89.43
2022-10-18T06:03:33.990Z,89.38
2022-10-18T06:06:07.807Z,89.26
2022-10-18T06:08:35.019Z,89.02
2022-10-18T06:11:13.211Z,88.68
2022-10-18T06:13:44.735Z,88.39
2022-10-18T06:16:13.548Z,88.25
2022-10-18T06:18:40.570Z,88.12
2022-10-18T06:21:08.129Z,87.74
2022-10-18T06:23:35.315Z,87.20
2022-10-18T06:26:05.087Z,86.63
2022-10-18T06:28:35.106Z,86.28
2022-10-18T06:31:02.774Z,86.10
2022-10-18T06:33:35.054Z,85.57
2022-10-18T06:36:23.908Z,85.44
2022-10-18T06:38:50.657Z,85.16
2022-10-18T06:41:19.411Z,84.08
2022-10-18T06:43:50.374Z,83.49
2022-10-18T06:46:16.958Z,83.23
2022-10-18T06:48:44.223Z,82.78
2022-10-18T06:51:11.427Z,82.68
2022-10-18T06:53:44.205Z,82.04
2022-10-18T06:56:20.145Z,81.89
2022-10-18T06:58:47.131Z,81.68
2022-10-18T07:01:16.610Z,81.49
2022-10-18T07:03:44.894Z,81.07
2022-10-18T07:06:14.276Z,80.70
2022-10-18T07:08:41.362Z,80.39
2022-10-18T07:11:13.574Z,80.11
2022-10-18T07:13:40.490Z,80.02
2022-10-18T07:16:17.280Z,78.87
2022-10-18T07:18:49.276Z,78.38
2022-10-18T07:21:19.190Z,78.65
2022-10-18T07:23:46.118Z,78.02
2022-10-18T07:26:18.637Z,77.88
2022-10-18T07:28:48.773Z,77.87
2022-10-18T07:31:15.470Z,77.77
2022-10-18T07:33:45.032Z,77.41
2022-10-18T07:36:13.115Z,76.35
2022-10-18T07:38:40.690Z,75.56
2022-10-18T07:41:12.000Z,73.50
2022-10-18T07:43:45.228Z,72.00
2022-10-18T07:46:14.767Z,69.42
2022-10-18T07:48:41.493Z,69.61
2022-10-18T07:51:08.610Z,68.99
2022-10-18T07:53:36.157Z,69.26
2022-10-18T07:56:09.672Z,69.55
2022-10-18T07:58:37.067Z,67.39
2022-10-18T08:01:05.630Z,66.57
2022-10-18T08:03:33.177Z,65.40
2022-10-18T08:06:00.208Z,65.38
2022-10-18T08:08:27.575Z,65.46
2022-10-18T08:10:54.175Z,64.90
2022-10-18T08:13:21.225Z,64.71
2022-10-18T08:15:47.964Z,64.62
2022-10-18T08:18:14.659Z,63.59
2022-10-18T08:20:45.284Z,63.28
2022-10-18T08:23:12.217Z,63.56
2022-10-18T08:25:39.375Z,62.47
2022-10-18T08:28:06.680Z,63.28
2022-10-18T08:30:36.038Z,62.66
2022-10-18T08:33:03.061Z,61.93
2022-10-18T08:35:31.445Z,60.92
2022-10-18T08:37:58.865Z,60.60
2022-10-18T08:40:27.069Z,60.94
2022-10-18T08:43:21.850Z,61.19
2022-10-18T08:45:51.007Z,59.15
2022-10-18T08:48:43.060Z,57.53
2022-10-18T08:51:28.675Z,56.47
2022-10-18T08:54:23.344Z,55.72
2022-10-18T08:57:00.216Z,56.03
2022-10-18T08:59:37.225Z,55.65
2022-10-18T09:02:09.865Z,56.11
2022-10-18T09:04:42.514Z,54.40
2022-10-18T09:07:25.125Z,53.43
2022-10-18T09:10:20.170Z,54.23
2022-10-18T09:13:14.680Z,54.21
2022-10-18T09:15:48.563Z,53.77
2022-10-18T09:18:52.443Z,51.99
2022-10-18T09:21:54.964Z,51.11
2022-10-18T09:25:10.818Z,51.87
2022-10-18T09:27:55.579Z,52.61
2022-10-18T09:30:31.224Z,52.07
2022-10-18T09:33:00.724Z,50.35
2022-10-18T09:35:29.312Z,49.93
2022-10-18T09:38:15.612Z,50.22
2022-10-18T09:40:58.318Z,50.38
2022-10-18T09:43:47.339Z,50.15
2022-10-18T09:46:15.654Z,48.68
2022-10-18T09:48:49.037Z,48.23
2022-10-18T09:51:22.718Z,48.99
2022-10-18T09:54:24.749Z,49.92
2022-10-18T09:57:17.777Z,49.43
2022-10-18T09:59:49.159Z,48.43
2022-10-18T10:02:20.425Z,47.49
2022-10-18T10:04:48.568Z,45.27
2022-10-18T10:07:23.785Z,45.54
2022-10-18T10:10:08.343Z,44.61
2022-10-18T10:12:37.798Z,43.85
2022-10-18T10:15:29.522Z,42.79
2022-10-18T10:18:23.385Z,41.26
2022-10-18T10:20:56.285Z,40.54
2022-10-18T10:23:36.142Z,39.69
2022-10-18T10:26:34.097Z,40.82
2022-10-18T10:29:01.314Z,43.89
2022-10-18T10:31:44.694Z,46.12
2022-10-18T10:34:14.400Z,47.46
2022-10-18T10:36:50.736Z,47.12
2022-10-18T10:39:19.575Z,46.96
2022-10-18T10:41:52.757Z,46.15
2022-10-18T10:44:23.098Z,45.66
2022-10-18T10:46:51.503Z,45.32
2022-10-18T10:49:41.270Z,46.24
2022-10-18T10:52:34.865Z,45.50
2022-10-18T10:55:23.252Z,46.26
2022-10-18T10:57:52.282Z,46.34
2022-10-18T11:00:45.345Z,47.36
2022-10-18T11:03:29.517Z,48.36
2022-10-18T11:06:00.424Z,49.04
2022-10-18T11:08:36.025Z,49.45
2022-10-18T11:11:32.575Z,50.19
2022-10-18T11:14:26.596Z,50.03
2022-10-18T11:17:15.357Z,48.16
2022-10-18T11:20:09.116Z,47.36
2022-10-18T11:22:59.662Z,45.63
2022-10-18T11:25:59.079Z,45.74
2022-10-18T11:28:52.639Z,45.29
2022-10-18T11:31:47.274Z,44.83
2022-10-18T11:34:38.850Z,44.18
2022-10-18T11:37:30.339Z,44.17
2022-10-18T11:40:38.951Z,44.72
2022-10-18T11:43:17.561Z,43.95
2022-10-18T11:45:56.443Z,44.72
2022-10-18T11:48:45.141Z,46.53
2022-10-18T11:51:33.930Z,47.91
2022-10-18T11:54:47.960Z,48.35
2022-10-18T11:57:36.071Z,48.38
2022-10-18T12:00:21.280Z,49.40
2022-10-18T12:03:03.753Z,49.97
2022-10-18T12:05:34.738Z,49.33
2022-10-18T12:08:13.340Z,49.66
2022-10-18T12:10:59.922Z,49.04
2022-10-18T12:13:57.379Z,48.15
2022-10-18T12:16:49.998Z,48.56
2022-10-18T12:19:27.556Z,50.95
2022-10-18T12:22:14.110Z,52.29
2022-10-18T12:24:41.667Z,53.65
2022-10-18T12:27:13.259Z,55.19
2022-10-18T12:29:50.524Z,55.84
2022-10-18T12:32:24.595Z,56.40
2022-10-18T12:35:11.067Z,57.49
2022-10-18T12:37:49.555Z,58.87
2022-10-18T12:40:21.641Z,60.04
2022-10-18T12:42:51.849Z,60.36
2022-10-18T12:45:35.503Z,60.30
2022-10-18T12:48:35.953Z,60.09
2022-10-18T12:51:21.358Z,60.20
2022-10-18T12:53:59.744Z,60.85
2022-10-18T12:56:29.518Z,61.35
2022-10-18T12:59:14.747Z,61.78
2022-10-18T13:01:50.622Z,62.14
2022-10-18T13:04:33.162Z,62.49
2022-10-18T13:07:07.434Z,62.78
2022-10-18T13:09:36.376Z,63.21
2022-10-18T13:12:09.426Z,63.34
2022-10-18T13:15:12.380Z,63.31
2022-10-18T13:18:05.090Z,63.72
2022-10-18T13:20:41.658Z,63.75
2022-10-18T13:23:39.289Z,63.82
2022-10-18T13:26:54.173Z,64.05
2022-10-18T13:29:59.011Z,64.21
2022-10-18T13:32:36.189Z,64.18
2022-10-18T13:35:03.198Z,64.42
2022-10-18T13:37:30.304Z,64.75
2022-10-18T13:40:23.968Z,65.01
2022-10-18T13:42:50.889Z,65.00
2022-10-18T13:45:52.169Z,65.17
2022-10-18T13:48:30.609Z,65.50
2022-10-18T13:51:12.446Z,65.72
2022-10-18T13:53:57.708Z,65.75
2022-10-18T13:56:36.567Z,66.02
2022-10-18T13:59:31.547Z,66.32
2022-10-18T14:02:30.692Z,66.43
2022-10-18T14:05:25.177Z,66.53
2022-10-18T14:08:04.677Z,66.49
2022-10-18T14:11:04.954Z,66.67
2022-10-18T14:14:01.952Z,67.05
2022-10-18T14:16:54.598Z,67.53
2022-10-18T14:19:48.887Z,67.33
2022-10-18T14:22:28.454Z,67.47
2022-10-18T14:24:58.024Z,67.58
2022-10-18T14:27:28.009Z,68.08
2022-10-18T14:30:15.589Z,68.62
2022-10-18T14:32:55.338Z,68.96
2022-10-18T14:35:33.284Z,69.44
2022-10-18T14:38:01.835Z,69.75
2022-10-18T14:40:35.402Z,70.16
2022-10-18T14:43:13.747Z,70.35
2022-10-18T14:45:42.195Z,70.65
2022-10-18T14:48:21.881Z,70.85
2022-10-18T14:50:59.890Z,71.14
2022-10-18T14:53:32.189Z,71.46
2022-10-18T14:56:03.968Z,71.64
2022-10-18T14:58:34.248Z,71.73
2022-10-18T15:01:01.041Z,71.93
2022-10-18T15:03:32.516Z,72.30
2022-10-18T15:06:01.960Z,72.66
2022-10-18T15:08:56.364Z,72.96
2022-10-18T15:11:25.426Z,73.33
2022-10-18T15:14:17.443Z,73.78
2022-10-18T15:16:44.849Z,74.38
2022-10-18T15:19:14.094Z,74.88
2022-10-18T15:25:11.202Z,75.37
2022-10-18T15:27:39.597Z,75.14
2022-10-18T15:30:28.383Z,75.08
2022-10-18T15:33:00.664Z,75.06
2022-10-18T15:35:41.412Z,75.20
2022-10-18T15:38:33.432Z,75.51
2022-10-18T15:41:00.217Z,76.04
2022-10-18T15:43:27.120Z,77.05
2022-10-18T15:45:58.913Z,77.74
2022-10-18T15:48:41.337Z,78.83
2022-10-18T15:51:46.123Z,79.71
2022-10-18T15:54:28.872Z,80.79
2022-10-18T15:56:56.309Z,82.01
2022-10-18T15:59:30.314Z,83.56
2022-10-18T16:01:57.476Z,84.81
2022-10-18T16:04:30.710Z,85.42
2022-10-18T16:06:58.814Z,86.18
2022-10-18T16:09:45.773Z,86.64
2022-10-18T16:12:12.492Z,87.23
2022-10-18T16:14:44.860Z,87.47
2022-10-18T16:17:16.898Z,87.89
2022-10-18T16:19:44.215Z,88.43
2022-10-18T16:24:40.145Z,89.18
2022-10-18T16:27:06.831Z,89.52
2022-10-18T16:29:34.081Z,89.79
2022-10-18T16:32:00.727Z,90.04
2022-10-18T16:34:31.882Z,90.25
2022-10-18T16:36:58.817Z,90.51
2022-10-18T16:39:25.733Z,90.73
2022-10-18T16:41:52.294Z,90.97
2022-10-18T16:44:19.283Z,91.14
2022-10-18T16:46:46.550Z,91.27
2022-10-18T16:49:25.233Z,91.43
2022-10-18T16:51:53.334Z,91.51
2022-10-18T16:54:20.476Z,91.64
2022-10-18T16:56:49.580Z,91.71
2022-10-18T16:59:31.041Z,91.82
2022-10-18T17:01:58.218Z,91.92
2022-10-18T17:04:24.958Z,91.88
2022-10-18T17:06:54.220Z,92.00
2022-10-18T17:09:21.185Z,92.10
2022-10-18T17:11:47.924Z,92.12
2022-10-18T17:14:14.520Z,92.18
2022-10-18T17:16:42.896Z,92.32
2022-10-18T17:19:11.865Z,92.43
2022-10-18T17:21:38.592Z,92.48
2022-10-18T17:24:06.032Z,92.40
2022-10-18T17:26:33.658Z,92.30
2022-10-18T17:29:04.484Z,92.30
2022-10-18T17:31:32.329Z,92.48
2022-10-18T17:34:01.227Z,92.56
2022-10-18T17:36:29.725Z,92.49
2022-10-18T17:38:57.092Z,92.46
2022-10-18T17:41:23.841Z,92.33
2022-10-18T17:43:50.475Z,92.19
2022-10-18T17:46:17.330Z,92.03
2022-10-18T17:48:44.766Z,91.97
2022-10-18T17:51:14.835Z,92.25
2022-10-18T17:53:41.982Z,92.14
2022-10-18T17:56:10.504Z,92.14
2022-10-18T17:58:37.247Z,92.19
2022-10-18T18:01:13.150Z,92.24
2022-10-18T18:03:40.854Z,92.30
2022-10-18T18:06:30.446Z,92.35
2022-10-18T18:08:58.851Z,92.39
2022-10-18T18:11:26.092Z,92.40
2022-10-18T18:13:54.970Z,92.52
2022-10-18T18:16:25.937Z,92.66
2022-10-18T18:18:54.418Z,92.72
2022-10-18T18:21:22.632Z,92.72
2022-10-18T18:23:50.221Z,92.84
2022-10-18T18:26:17.789Z,92.92
2022-10-18T18:28:45.101Z,92.99
2022-10-18T18:31:18.704Z,93.00
2022-10-18T18:33:45.848Z,93.06
2022-10-18T18:36:12.779Z,93.10
2022-10-18T18:38:42.155Z,93.11
2022-10-18T18:41:16.154Z,93.09
2022-10-18T18:43:55.518Z,93.18
2022-10-18T18:46:22.705Z,93.24
2022-10-18T18:48:49.762Z,93.29
2022-10-18T18:51:19.728Z,93.31
2022-10-18T18:53:48.375Z,93.23
2022-10-18T18:56:18.017Z,93.20
2022-10-18T18:58:45.993Z,93.25
2022-10-18T19:01:18.605Z,93.27
2022-10-18T19:03:47.135Z,93.27
2022-10-18T19:06:17.965Z,93.31
2022-10-18T19:08:45.784Z,93.32
2022-10-18T19:11:25.124Z,93.35
2022-10-18T19:13:51.907Z,93.39
2022-10-18T19:16:24.179Z,93.46
2022-10-18T19:18:56.906Z,93.43
2022-10-18T19:21:27.137Z,93.49
2022-10-18T19:23:55.728Z,93.62
2022-10-18T19:26:50.355Z,93.67
2022-10-18T19:29:27.099Z,93.70
2022-10-18T19:31:56.528Z,93.67
2022-10-18T19:34:25.262Z,93.54
2022-10-18T19:36:52.334Z,93.45
2022-10-18T19:39:24.474Z,93.42
2022-10-18T19:41:54.841Z,93.41
2022-10-18T19:44:23.777Z,93.49
2022-10-18T19:46:50.828Z,93.40
2022-10-18T19:49:17.704Z,93.28
2022-10-18T19:51:44.530Z,93.36
2022-10-18T19:54:12.562Z,93.38
2022-10-18T19:56:41.105Z,93.44
2022-10-18T19:59:09.095Z,93.48
2022-10-18T20:01:36.546Z,93.51
2022-10-18T20:04:04.265Z,93.54
2022-10-18T20:06:31.430Z,93.51
2022-10-18T20:08:58.014Z,93.49
2022-10-18T20:11:26.763Z,93.52
2022-10-18T20:13:53.793Z,93.65
2022-10-18T20:16:27.829Z,93.68
2022-10-18T20:19:11.172Z,93.69
2022-10-18T20:21:39.235Z,93.74
2022-10-18T20:24:07.021Z,93.76
2022-10-18T20:26:35.388Z,93.80
2022-10-18T20:29:03.400Z,93.80
2022-10-18T20:31:33.360Z,93.79
2022-10-18T20:34:02.545Z,93.81
2022-10-18T20:36:31.678Z,93.76
2022-10-18T20:38:58.591Z,93.76
2022-10-18T20:41:30.905Z,93.61
2022-10-18T20:44:03.576Z,93.56
2022-10-18T20:46:32.348Z,93.59
2022-10-18T20:48:59.175Z,93.74
2022-10-18T20:51:26.094Z,93.68
2022-10-18T20:53:53.491Z,93.61
2022-10-18T20:56:22.833Z,93.54
2022-10-18T20:58:51.392Z,93.58
2022-10-18T21:01:28.804Z,93.65
2022-10-18T21:03:58.435Z,93.65
2022-10-18T21:06:28.944Z,93.62
2022-10-18T21:08:57.909Z,93.58
2022-10-18T21:11:25.656Z,93.61
2022-10-18T21:13:55.032Z,93.48
2022-10-18T21:16:21.750Z,93.48
2022-10-18T21:18:48.673Z,93.51
2022-10-18T21:21:18.070Z,93.42
2022-10-18T21:23:46.443Z,93.48
2022-10-18T21:26:15.640Z,93.48
2022-10-18T21:28:42.462Z,93.41
2022-10-18T21:31:12.367Z,93.36
2022-10-18T21:33:41.634Z,93.40
2022-10-18T21:36:09.523Z,93.44
2022-10-18T21:38:36.499Z,93.29
2022-10-18T21:41:09.460Z,93.31
2022-10-18T21:43:40.789Z,93.37
2022-10-18T21:46:09.532Z,93.30
2022-10-18T21:48:37.470Z,93.29
2022-10-18T21:51:07.980Z,93.28
2022-10-18T21:53:43.213Z,93.24
2022-10-18T21:56:13.163Z,93.20
2022-10-18T21:58:41.147Z,93.14
2022-10-18T22:01:15.358Z,93.19
2022-10-18T22:03:44.009Z,93.20
2022-10-18T22:06:14.618Z,93.25
2022-10-18T22:08:50.226Z,93.25
2022-10-18T22:11:19.928Z,93.28
2022-10-18T22:13:47.014Z,93.23
2022-10-18T22:16:15.743Z,93.23
2022-10-18T22:18:47.811Z,93.30
2022-10-18T22:21:17.456Z,93.33
2022-10-18T22:23:47.025Z,93.17
2022-10-18T22:26:27.099Z,93.10
2022-10-18T22:29:03.283Z,93.16
2022-10-18T22:31:49.722Z,92.91
2022-10-18T22:34:19.240Z,92.88
2022-10-18T22:36:46.260Z,92.83
2022-10-18T22:39:14.791Z,92.87
2022-10-18T22:41:42.105Z,92.81
2022-10-18T22:44:11.923Z,92.71
2022-10-18T22:46:39.444Z,92.64
2022-10-18T22:49:06.413Z,92.66
2022-10-18T22:54:00.314Z,92.61
2022-10-18T22:56:27.050Z,92.52
2022-10-18T22:58:53.669Z,92.53
2022-10-18T23:01:22.980Z,92.50
2022-10-18T23:03:54.503Z,92.45
2022-10-18T23:06:30.040Z,92.53
2022-10-18T23:08:58.885Z,92.56
2022-10-18T23:11:27.629Z,92.67
2022-10-18T23:13:54.569Z,92.74
2022-10-18T23:16:21.428Z,92.82
2022-10-18T23:18:53.929Z,92.93
2022-10-18T23:21:23.722Z,92.91
2022-10-18T23:23:51.526Z,92.85
2022-10-18T23:26:21.786Z,92.81
2022-10-18T23:28:50.319Z,92.67
2022-10-18T23:31:23.495Z,92.58
2022-10-18T23:33:52.497Z,92.56
2022-10-18T23:36:19.814Z,92.50
2022-10-18T23:38:46.536Z,92.43
2022-10-18T23:41:14.890Z,92.48
2022-10-18T23:43:42.757Z,92.44
2022-10-18T23:46:10.236Z,92.37
2022-10-18T23:48:36.838Z,92.34
2022-10-18T23:51:04.008Z,92.24
2022-10-18T23:53:31.159Z,92.14
2022-10-18T23:56:03.897Z,92.05
2022-10-18T23:58:32.350Z,91.94
